ADDS METAR Data INFO
IDs: Format: Raw Decoded Include TAF

Data at: 0626 UTC 15 Dec 2017

PAWS 150556Z AUTO 00000KT 7SM -SN OVC008 M01/M02 A2957 RMK AO2 CIG 003V008 SLP028 P0000 60002 T10111017 11011 21017 51024 FZRANO
PAWS 150456Z AUTO 06004KT 4SM -SN BR OVC006 M01/M02 A2954 RMK AO2 SLP020 P0001 T10111017 FZRANO
PAWS 150438Z AUTO 00000KT 4SM -SN BR OVC006 M01/M02 A2954 RMK AO2 P0001 FZRANO
PAWS 150428Z AUTO 10003KT 2 1/2SM -SN BR OVC006 M02/M02 A2953 RMK AO2 P0001 FZRANO
PAWS 150410Z AUTO 10003KT 2 1/2SM -SN BR OVC004 M02/M02 A2953 RMK AO2 P0001 FZRANO
PAWS 150356Z AUTO 00000KT 4SM -SN BR OVC004 M02/M02 A2952 RMK AO2 SLP013 P0000 T10171022 FZRANO
PAWS 150337Z AUTO 09003KT 4SM -SN BR OVC004 M02/M02 A2952 RMK AO2 P0000 FZRANO
PAWS 150314Z AUTO 00000KT 2SM -SN BR OVC004 M02/M02 A2951 RMK AO2 P0000 FZRANO
PAWS 150256Z AUTO 00000KT 1 1/4SM -SN BR OVC004 M02/M02 A2950 RMK AO2 SLP004 P0001 60001 T10171022 51015 FZRANO
PAWS 150236Z AUTO 00000KT 1 1/2SM -SN BR OVC004 M02/M02 A2949 RMK AO2 P0001 FZRANO
PAWS 150156Z AUTO 00000KT 2SM -SN BR OVC006 M02/M03 A2948 RMK AO2 UPE06SNB06 SLP999 P0000 T10171028 FZRANO
PAWS 150056Z AUTO 00000KT 3SM UP BR OVC008 M02/M03 A2947 RMK AO2 UPE34B56SNB34E56 SLP995 P0000 T10171028 FZRANO
PAWS 150030Z AUTO 00000KT 4SM UP BR SCT008 BKN033 OVC040 M02/M03 A2946 RMK AO2 P0000 FZRANO
PAWS 142356Z AUTO 00000KT 10SM UP OVC044 M02/M03 A2945 RMK AO2 UPB40 SLP989 P0000 60000 T10171028 11017 21033 53004 FZRANO
PAWS 142315Z AUTO 00000KT 10SM SCT009 OVC055 M02/M03 A2944 RMK AO2 FZRANO
PAWS 142256Z AUTO 00000KT 10SM OVC009 M02/M03 A2944 RMK AO2 SLP985 T10171033 FZRANO
PAWS 142242Z AUTO 00000KT 10SM BKN009 BKN060 OVC075 M02/M03 A2944 RMK AO2 FZRANO
PAWS 142225Z AUTO 00000KT 10SM FEW009 BKN075 OVC090 M02/M03 A2944 RMK AO2 FZRANO
PAWS 142156Z AUTO 00000KT 10SM FEW060 OVC095 M02/M04 A2944 RMK AO2 SLP983 T10221039 FZRANO
PAWS 142056Z AUTO 00000KT 10SM OVC065 M03/M04 A2944 RMK AO2 SLP985 T10281039 56014 FZRANO
PAWS 141956Z AUTO 25003KT 10SM OVC070 M03/M04 A2946 RMK AO2 SLP990 T10331044 FZRANO
PAWS 141756Z AUTO 00000KT 10SM OVC095 M03/M04 A2948 RMK AO2 SLP998 T10331044 11022 21044 56026 FZRANO
PAWS 141656Z AUTO 00000KT 10SM OVC100 M03/M04 A2950 RMK AO2 SLP005 T10331044 FZRANO
PAWS 141556Z AUTO 25003KT 10SM OVC110 M03/M04 A2953 RMK AO2 SLP016 T10331044 FZRANO
PAWS 141456Z AUTO 00000KT 10SM BKN120 M03/M05 A2956 RMK AO2 SLP025 T10331050 58026 FZRANO
PAWS 141156Z AUTO 00000KT 10SM CLR M04/M04 A2964 RMK AO2 SLP052 T10391044 10028 21039 58017 FZRANO
PAWS 141056Z AUTO 00000KT 10SM CLR M03/M04 A2966 RMK AO2 SLP058 T10331044 FZRANO
PAWS 140956Z AUTO 00000KT 10SM CLR M02/M03 A2968 RMK AO2 SLP064 T10221033 FZRANO
PAWS 140856Z AUTO 36004KT 10SM CLR M02/M03 A2969 RMK AO2 SLP069 T10171033 400831033 50004 FZRANO
PAWS 140756Z AUTO 00000KT 10SM CLR M03/M04 A2969 RMK AO2 SLP071 T10281039 FZRANO
PAWS 140656Z AUTO 24003KT 10SM CLR M02/M03 A2969 RMK AO2 SLP070 T10171033 FZRANO
PAWS 140556Z AUTO 07003KT 10SM CLR 02/M02 A2968 RMK AO2 SLP065 T00221022 10061 20011 51014 FZRANO
PAWS 140456Z AUTO 04004KT 10SM CLR 02/M02 A2967 RMK AO2 SLP064 T00221017 FZRANO
PAWS 140356Z AUTO 06005KT 10SM CLR 04/M01 A2966 RMK AO2 SLP058 T00391011
PAWS 132356Z AUTO 07013G20KT 10SM CLR 06/01 A2958 RMK AO2 SLP031 T00560011 10061 20050 53005
PAWS 132256Z AUTO 08011G20KT 10SM CLR 06/01 A2957 RMK AO2 SLP026 T00610011
PAWS 132156Z AUTO 07012G18KT 10SM CLR 06/01 A2956 RMK AO2 SLP025 T00560011
PAWS 132056Z AUTO 06012G22KT 10SM CLR 05/01 A2957 RMK AO2 SLP027 T00500011 51014
PAWS 131956Z AUTO 07016G26KT 10SM FEW075 06/01 A2956 RMK AO2 PK WND 06026/1955 SLP026 T00560011
PAWS 131856Z AUTO 06012G20KT 10SM OVC090 06/02 A2953 RMK AO2 SLP017 T00560022